sensor_id;sensor_type;location;lat;lon;timestamp;P1;durP1;ratioP1;P2;durP2;ratioP2
12171;SDS011;6149;52.418;13.668;2022-12-29T00:00:59;3.47;;;1.67;;
12171;SDS011;6149;52.418;13.668;2022-12-29T00:03:27;4.30;;;2.20;;
12171;SDS011;6149;52.418;13.668;2022-12-29T00:05:56;3.83;;;2.00;;
12171;SDS011;6149;52.418;13.668;2022-12-29T00:08:24;2.10;;;1.67;;
12171;SDS011;6149;52.418;13.668;2022-12-29T00:11:05;2.30;;;2.10;;
12171;SDS011;6149;52.418;13.668;2022-12-29T00:13:34;2.40;;;2.20;;
12171;SDS011;6149;52.418;13.668;2022-12-29T00:16:19;2.50;;;1.90;;
12171;SDS011;6149;52.418;13.668;2022-12-29T00:18:48;3.77;;;1.90;;
12171;SDS011;6149;52.418;13.668;2022-12-29T00:21:15;2.40;;;2.07;;
12171;SDS011;6149;52.418;13.668;2022-12-29T00:24:02;3.80;;;1.67;;
12171;SDS011;6149;52.418;13.668;2022-12-29T00:26:50;2.17;;;1.70;;
12171;SDS011;6149;52.418;13.668;2022-12-29T00:29:41;1.83;;;1.50;;
12171;SDS011;6149;52.418;13.668;2022-12-29T00:32:26;2.40;;;1.70;;
12171;SDS011;6149;52.418;13.668;2022-12-29T00:35:11;2.17;;;1.53;;
12171;SDS011;6149;52.418;13.668;2022-12-29T00:37:45;1.87;;;1.60;;
12171;SDS011;6149;52.418;13.668;2022-12-29T00:40:32;1.77;;;1.60;;
12171;SDS011;6149;52.418;13.668;2022-12-29T00:43:20;2.77;;;1.50;;
12171;SDS011;6149;52.418;13.668;2022-12-29T00:46:06;2.53;;;1.60;;
12171;SDS011;6149;52.418;13.668;2022-12-29T00:48:33;2.20;;;1.63;;
12171;SDS011;6149;52.418;13.668;2022-12-29T00:51:18;2.60;;;1.60;;
12171;SDS011;6149;52.418;13.668;2022-12-29T00:53:45;2.20;;;1.50;;
12171;SDS011;6149;52.418;13.668;2022-12-29T00:56:13;1.83;;;1.50;;
12171;SDS011;6149;52.418;13.668;2022-12-29T00:58:45;2.90;;;1.90;;
12171;SDS011;6149;52.418;13.668;2022-12-29T01:01:12;1.93;;;1.50;;
12171;SDS011;6149;52.418;13.668;2022-12-29T01:03:39;2.80;;;1.53;;
12171;SDS011;6149;52.418;13.668;2022-12-29T01:06:07;3.87;;;1.90;;
12171;SDS011;6149;52.418;13.668;2022-12-29T01:08:37;1.83;;;1.50;;
12171;SDS011;6149;52.418;13.668;2022-12-29T01:11:06;2.80;;;1.40;;
12171;SDS011;6149;52.418;13.668;2022-12-29T01:13:34;4.23;;;1.50;;
12171;SDS011;6149;52.418;13.668;2022-12-29T01:16:05;1.97;;;1.33;;
12171;SDS011;6149;52.418;13.668;2022-12-29T01:18:34;2.67;;;1.40;;
12171;SDS011;6149;52.418;13.668;2022-12-29T01:21:03;4.07;;;1.60;;
12171;SDS011;6149;52.418;13.668;2022-12-29T01:23:33;3.03;;;1.70;;
12171;SDS011;6149;52.418;13.668;2022-12-29T01:26:07;1.67;;;1.40;;
12171;SDS011;6149;52.418;13.668;2022-12-29T01:28:35;2.47;;;1.60;;
12171;SDS011;6149;52.418;13.668;2022-12-29T01:31:06;2.03;;;1.27;;
12171;SDS011;6149;52.418;13.668;2022-12-29T01:33:34;2.10;;;1.40;;
12171;SDS011;6149;52.418;13.668;2022-12-29T01:36:01;2.03;;;1.37;;
12171;SDS011;6149;52.418;13.668;2022-12-29T01:38:29;1.97;;;1.40;;
12171;SDS011;6149;52.418;13.668;2022-12-29T01:40:58;2.93;;;1.53;;
12171;SDS011;6149;52.418;13.668;2022-12-29T01:43:37;2.77;;;1.53;;
12171;SDS011;6149;52.418;13.668;2022-12-29T01:46:08;2.33;;;1.27;;
12171;SDS011;6149;52.418;13.668;2022-12-29T01:48:51;3.93;;;1.57;;
12171;SDS011;6149;52.418;13.668;2022-12-29T01:51:26;2.23;;;1.30;;
12171;SDS011;6149;52.418;13.668;2022-12-29T01:53:58;4.00;;;1.50;;
12171;SDS011;6149;52.418;13.668;2022-12-29T01:56:30;1.80;;;1.30;;
12171;SDS011;6149;52.418;13.668;2022-12-29T01:59:00;1.77;;;1.57;;
12171;SDS011;6149;52.418;13.668;2022-12-29T02:01:31;2.90;;;1.50;;
12171;SDS011;6149;52.418;13.668;2022-12-29T02:04:00;2.67;;;1.67;;
12171;SDS011;6149;52.418;13.668;2022-12-29T02:06:29;2.57;;;1.50;;
12171;SDS011;6149;52.418;13.668;2022-12-29T02:09:00;2.53;;;1.67;;
12171;SDS011;6149;52.418;13.668;2022-12-29T02:11:28;2.23;;;1.20;;
12171;SDS011;6149;52.418;13.668;2022-12-29T02:13:58;2.83;;;1.60;;
12171;SDS011;6149;52.418;13.668;2022-12-29T02:16:40;3.27;;;1.60;;
12171;SDS011;6149;52.418;13.668;2022-12-29T02:19:47;2.10;;;1.70;;
12171;SDS011;6149;52.418;13.668;2022-12-29T02:23:00;1.60;;;1.30;;
12171;SDS011;6149;52.418;13.668;2022-12-29T02:26:05;1.50;;;1.30;;
12171;SDS011;6149;52.418;13.668;2022-12-29T02:31:56;2.50;;;1.43;;
12171;SDS011;6149;52.418;13.668;2022-12-29T02:34:30;2.50;;;1.40;;
12171;SDS011;6149;52.418;13.668;2022-12-29T02:37:10;2.00;;;1.30;;
12171;SDS011;6149;52.418;13.668;2022-12-29T02:39:46;2.27;;;1.33;;
12171;SDS011;6149;52.418;13.668;2022-12-29T02:42:29;2.50;;;1.30;;
12171;SDS011;6149;52.418;13.668;2022-12-29T02:45:05;2.03;;;1.33;;
12171;SDS011;6149;52.418;13.668;2022-12-29T02:47:41;2.20;;;1.10;;
12171;SDS011;6149;52.418;13.668;2022-12-29T02:50:15;1.63;;;1.40;;
12171;SDS011;6149;52.418;13.668;2022-12-29T02:52:52;4.57;;;1.30;;
12171;SDS011;6149;52.418;13.668;2022-12-29T02:55:27;1.67;;;1.20;;
12171;SDS011;6149;52.418;13.668;2022-12-29T02:58:12;1.67;;;1.50;;
12171;SDS011;6149;52.418;13.668;2022-12-29T03:00:55;2.87;;;1.50;;
12171;SDS011;6149;52.418;13.668;2022-12-29T03:03:51;2.40;;;1.40;;
12171;SDS011;6149;52.418;13.668;2022-12-29T03:06:32;3.23;;;1.40;;
12171;SDS011;6149;52.418;13.668;2022-12-29T03:09:21;1.87;;;1.40;;
12171;SDS011;6149;52.418;13.668;2022-12-29T03:12:07;1.50;;;1.30;;
12171;SDS011;6149;52.418;13.668;2022-12-29T03:14:45;1.70;;;1.40;;
12171;SDS011;6149;52.418;13.668;2022-12-29T03:17:42;1.90;;;1.43;;
12171;SDS011;6149;52.418;13.668;2022-12-29T03:20:18;1.20;;;1.10;;
12171;SDS011;6149;52.418;13.668;2022-12-29T03:22:55;2.30;;;1.30;;
12171;SDS011;6149;52.418;13.668;2022-12-29T03:25:28;2.07;;;1.30;;
12171;SDS011;6149;52.418;13.668;2022-12-29T03:27:58;1.70;;;1.30;;
12171;SDS011;6149;52.418;13.668;2022-12-29T03:30:30;2.03;;;1.67;;
12171;SDS011;6149;52.418;13.668;2022-12-29T03:33:01;1.77;;;1.37;;
12171;SDS011;6149;52.418;13.668;2022-12-29T03:35:36;2.83;;;1.50;;
12171;SDS011;6149;52.418;13.668;2022-12-29T03:38:05;2.00;;;1.40;;
12171;SDS011;6149;52.418;13.668;2022-12-29T03:40:40;1.90;;;1.30;;
12171;SDS011;6149;52.418;13.668;2022-12-29T03:43:13;3.50;;;1.60;;
12171;SDS011;6149;52.418;13.668;2022-12-29T03:45:41;3.63;;;1.17;;
12171;SDS011;6149;52.418;13.668;2022-12-29T03:48:08;1.87;;;1.33;;
12171;SDS011;6149;52.418;13.668;2022-12-29T03:50:36;1.70;;;1.30;;
12171;SDS011;6149;52.418;13.668;2022-12-29T03:53:04;2.00;;;1.50;;
12171;SDS011;6149;52.418;13.668;2022-12-29T03:55:32;3.80;;;1.43;;
12171;SDS011;6149;52.418;13.668;2022-12-29T03:58:00;2.67;;;1.50;;
12171;SDS011;6149;52.418;13.668;2022-12-29T04:00:28;2.23;;;1.23;;
12171;SDS011;6149;52.418;13.668;2022-12-29T04:02:56;1.97;;;1.20;;
12171;SDS011;6149;52.418;13.668;2022-12-29T04:05:23;1.50;;;1.10;;
12171;SDS011;6149;52.418;13.668;2022-12-29T04:07:52;2.77;;;1.57;;
12171;SDS011;6149;52.418;13.668;2022-12-29T04:10:22;2.53;;;1.40;;
12171;SDS011;6149;52.418;13.668;2022-12-29T04:12:53;2.77;;;1.60;;
12171;SDS011;6149;52.418;13.668;2022-12-29T04:15:22;2.17;;;1.57;;
12171;SDS011;6149;52.418;13.668;2022-12-29T04:17:52;3.00;;;1.50;;
12171;SDS011;6149;52.418;13.668;2022-12-29T04:20:21;3.37;;;1.70;;
12171;SDS011;6149;52.418;13.668;2022-12-29T04:23:11;2.27;;;1.30;;
12171;SDS011;6149;52.418;13.668;2022-12-29T04:25:38;2.03;;;1.30;;
12171;SDS011;6149;52.418;13.668;2022-12-29T04:28:05;2.77;;;1.17;;
12171;SDS011;6149;52.418;13.668;2022-12-29T04:30:32;3.60;;;1.30;;
12171;SDS011;6149;52.418;13.668;2022-12-29T04:33:01;2.30;;;1.40;;
12171;SDS011;6149;52.418;13.668;2022-12-29T04:35:27;2.13;;;1.40;;
12171;SDS011;6149;52.418;13.668;2022-12-29T04:37:59;1.63;;;1.23;;
12171;SDS011;6149;52.418;13.668;2022-12-29T04:40:27;1.67;;;1.20;;
12171;SDS011;6149;52.418;13.668;2022-12-29T04:42:55;3.67;;;1.50;;
12171;SDS011;6149;52.418;13.668;2022-12-29T04:45:22;1.30;;;1.20;;
12171;SDS011;6149;52.418;13.668;2022-12-29T04:47:50;2.63;;;1.33;;
12171;SDS011;6149;52.418;13.668;2022-12-29T04:50:20;2.10;;;1.30;;
12171;SDS011;6149;52.418;13.668;2022-12-29T04:52:47;1.67;;;1.13;;
12171;SDS011;6149;52.418;13.668;2022-12-29T04:55:13;3.10;;;1.40;;
12171;SDS011;6149;52.418;13.668;2022-12-29T04:57:44;2.23;;;1.50;;
12171;SDS011;6149;52.418;13.668;2022-12-29T05:00:11;2.00;;;1.40;;
12171;SDS011;6149;52.418;13.668;2022-12-29T05:02:40;1.67;;;1.40;;
12171;SDS011;6149;52.418;13.668;2022-12-29T05:05:08;2.70;;;1.50;;
12171;SDS011;6149;52.418;13.668;2022-12-29T05:07:35;1.60;;;1.33;;
12171;SDS011;6149;52.418;13.668;2022-12-29T05:10:02;1.53;;;1.40;;
12171;SDS011;6149;52.418;13.668;2022-12-29T05:12:32;3.67;;;1.40;;
12171;SDS011;6149;52.418;13.668;2022-12-29T05:15:01;2.67;;;1.53;;
12171;SDS011;6149;52.418;13.668;2022-12-29T05:17:29;2.50;;;1.63;;
12171;SDS011;6149;52.418;13.668;2022-12-29T05:19:59;2.47;;;1.33;;
12171;SDS011;6149;52.418;13.668;2022-12-29T05:22:26;2.20;;;1.30;;
12171;SDS011;6149;52.418;13.668;2022-12-29T05:24:53;2.43;;;1.70;;
12171;SDS011;6149;52.418;13.668;2022-12-29T05:27:24;2.60;;;1.50;;
12171;SDS011;6149;52.418;13.668;2022-12-29T05:29:53;3.77;;;1.50;;
12171;SDS011;6149;52.418;13.668;2022-12-29T05:32:25;2.47;;;1.33;;
12171;SDS011;6149;52.418;13.668;2022-12-29T05:34:52;2.37;;;1.43;;
12171;SDS011;6149;52.418;13.668;2022-12-29T05:37:21;2.57;;;1.40;;
12171;SDS011;6149;52.418;13.668;2022-12-29T05:39:48;1.80;;;1.40;;
12171;SDS011;6149;52.418;13.668;2022-12-29T05:42:14;3.07;;;1.40;;
12171;SDS011;6149;52.418;13.668;2022-12-29T05:44:41;2.80;;;1.40;;
12171;SDS011;6149;52.418;13.668;2022-12-29T05:47:08;3.37;;;1.60;;
12171;SDS011;6149;52.418;13.668;2022-12-29T05:49:40;1.87;;;1.23;;
12171;SDS011;6149;52.418;13.668;2022-12-29T05:52:07;2.60;;;1.47;;
12171;SDS011;6149;52.418;13.668;2022-12-29T05:54:35;2.23;;;1.70;;
12171;SDS011;6149;52.418;13.668;2022-12-29T05:57:01;2.43;;;1.37;;
12171;SDS011;6149;52.418;13.668;2022-12-29T05:59:28;2.30;;;1.50;;
12171;SDS011;6149;52.418;13.668;2022-12-29T06:01:55;5.50;;;1.77;;
12171;SDS011;6149;52.418;13.668;2022-12-29T06:04:22;1.70;;;1.50;;
12171;SDS011;6149;52.418;13.668;2022-12-29T06:06:51;2.53;;;1.77;;
12171;SDS011;6149;52.418;13.668;2022-12-29T06:09:18;2.73;;;1.80;;
12171;SDS011;6149;52.418;13.668;2022-12-29T06:11:45;1.67;;;1.40;;
12171;SDS011;6149;52.418;13.668;2022-12-29T06:14:12;3.57;;;1.77;;
12171;SDS011;6149;52.418;13.668;2022-12-29T06:16:39;2.20;;;1.50;;
12171;SDS011;6149;52.418;13.668;2022-12-29T06:19:07;2.60;;;1.53;;
12171;SDS011;6149;52.418;13.668;2022-12-29T06:21:35;2.60;;;1.60;;
12171;SDS011;6149;52.418;13.668;2022-12-29T06:24:05;3.10;;;1.53;;
12171;SDS011;6149;52.418;13.668;2022-12-29T06:26:33;1.50;;;1.30;;
12171;SDS011;6149;52.418;13.668;2022-12-29T06:29:00;1.53;;;1.30;;
12171;SDS011;6149;52.418;13.668;2022-12-29T06:31:27;3.93;;;1.50;;
12171;SDS011;6149;52.418;13.668;2022-12-29T06:33:56;2.87;;;1.70;;
12171;SDS011;6149;52.418;13.668;2022-12-29T06:36:23;1.60;;;1.37;;
12171;SDS011;6149;52.418;13.668;2022-12-29T06:38:52;2.83;;;1.50;;
12171;SDS011;6149;52.418;13.668;2022-12-29T06:41:23;1.73;;;1.53;;
12171;SDS011;6149;52.418;13.668;2022-12-29T06:43:54;2.47;;;1.47;;
12171;SDS011;6149;52.418;13.668;2022-12-29T06:46:24;3.40;;;1.43;;
12171;SDS011;6149;52.418;13.668;2022-12-29T06:48:52;3.10;;;1.50;;
12171;SDS011;6149;52.418;13.668;2022-12-29T06:51:21;2.90;;;1.43;;
12171;SDS011;6149;52.418;13.668;2022-12-29T06:53:47;2.20;;;1.30;;
12171;SDS011;6149;52.418;13.668;2022-12-29T06:56:14;3.80;;;1.43;;
12171;SDS011;6149;52.418;13.668;2022-12-29T06:58:42;1.83;;;1.40;;
12171;SDS011;6149;52.418;13.668;2022-12-29T07:01:10;3.13;;;1.70;;
12171;SDS011;6149;52.418;13.668;2022-12-29T07:03:37;2.13;;;1.47;;
12171;SDS011;6149;52.418;13.668;2022-12-29T07:06:04;1.87;;;1.37;;
12171;SDS011;6149;52.418;13.668;2022-12-29T07:08:32;3.60;;;1.50;;
12171;SDS011;6149;52.418;13.668;2022-12-29T07:10:59;2.90;;;1.50;;
12171;SDS011;6149;52.418;13.668;2022-12-29T07:13:27;1.53;;;1.30;;
12171;SDS011;6149;52.418;13.668;2022-12-29T07:16:09;1.60;;;1.20;;
12171;SDS011;6149;52.418;13.668;2022-12-29T07:18:36;1.63;;;1.50;;
12171;SDS011;6149;52.418;13.668;2022-12-29T07:21:05;2.00;;;1.50;;
12171;SDS011;6149;52.418;13.668;2022-12-29T07:23:34;2.13;;;1.40;;
12171;SDS011;6149;52.418;13.668;2022-12-29T07:26:00;1.87;;;1.40;;
12171;SDS011;6149;52.418;13.668;2022-12-29T07:28:29;2.73;;;1.30;;
12171;SDS011;6149;52.418;13.668;2022-12-29T07:30:59;2.17;;;1.33;;
12171;SDS011;6149;52.418;13.668;2022-12-29T07:33:28;3.37;;;1.23;;
12171;SDS011;6149;52.418;13.668;2022-12-29T07:35:55;2.63;;;1.43;;
12171;SDS011;6149;52.418;13.668;2022-12-29T07:38:24;1.80;;;1.30;;
12171;SDS011;6149;52.418;13.668;2022-12-29T07:40:55;1.90;;;1.40;;
12171;SDS011;6149;52.418;13.668;2022-12-29T07:43:27;3.40;;;1.60;;
12171;SDS011;6149;52.418;13.668;2022-12-29T07:45:56;1.30;;;1.20;;
12171;SDS011;6149;52.418;13.668;2022-12-29T07:48:23;2.97;;;1.30;;
12171;SDS011;6149;52.418;13.668;2022-12-29T07:50:51;1.27;;;1.00;;
12171;SDS011;6149;52.418;13.668;2022-12-29T07:53:19;2.40;;;1.30;;
12171;SDS011;6149;52.418;13.668;2022-12-29T07:55:46;2.47;;;1.57;;
12171;SDS011;6149;52.418;13.668;2022-12-29T07:58:16;1.80;;;1.40;;
12171;SDS011;6149;52.418;13.668;2022-12-29T08:00:43;2.23;;;1.43;;
12171;SDS011;6149;52.418;13.668;2022-12-29T08:03:10;1.70;;;1.23;;
12171;SDS011;6149;52.418;13.668;2022-12-29T08:05:38;2.63;;;1.20;;
12171;SDS011;6149;52.418;13.668;2022-12-29T08:08:05;1.90;;;1.23;;
12171;SDS011;6149;52.418;13.668;2022-12-29T08:10:33;1.87;;;1.10;;
12171;SDS011;6149;52.418;13.668;2022-12-29T08:13:01;2.40;;;1.20;;
12171;SDS011;6149;52.418;13.668;2022-12-29T08:15:28;2.67;;;1.50;;
12171;SDS011;6149;52.418;13.668;2022-12-29T08:17:55;2.10;;;1.30;;
12171;SDS011;6149;52.418;13.668;2022-12-29T08:20:22;1.67;;;1.30;;
12171;SDS011;6149;52.418;13.668;2022-12-29T08:22:53;1.97;;;1.30;;
12171;SDS011;6149;52.418;13.668;2022-12-29T08:25:23;1.53;;;1.27;;
12171;SDS011;6149;52.418;13.668;2022-12-29T08:27:53;1.83;;;1.40;;
12171;SDS011;6149;52.418;13.668;2022-12-29T08:30:22;1.17;;;1.07;;
12171;SDS011;6149;52.418;13.668;2022-12-29T08:32:51;2.67;;;1.43;;
12171;SDS011;6149;52.418;13.668;2022-12-29T08:35:17;2.13;;;1.20;;
12171;SDS011;6149;52.418;13.668;2022-12-29T08:37:46;1.60;;;1.27;;
12171;SDS011;6149;52.418;13.668;2022-12-29T08:40:15;2.07;;;1.40;;
12171;SDS011;6149;52.418;13.668;2022-12-29T08:42:42;1.40;;;1.30;;
12171;SDS011;6149;52.418;13.668;2022-12-29T08:45:09;1.50;;;1.40;;
12171;SDS011;6149;52.418;13.668;2022-12-29T08:47:36;2.17;;;1.37;;
12171;SDS011;6149;52.418;13.668;2022-12-29T08:50:05;2.53;;;1.47;;
12171;SDS011;6149;52.418;13.668;2022-12-29T08:52:35;1.80;;;1.30;;
12171;SDS011;6149;52.418;13.668;2022-12-29T08:55:03;1.60;;;1.47;;
12171;SDS011;6149;52.418;13.668;2022-12-29T08:57:33;1.47;;;1.10;;
12171;SDS011;6149;52.418;13.668;2022-12-29T09:00:00;2.00;;;1.30;;
12171;SDS011;6149;52.418;13.668;2022-12-29T09:02:28;2.93;;;1.40;;
12171;SDS011;6149;52.418;13.668;2022-12-29T09:04:56;2.13;;;1.20;;
12171;SDS011;6149;52.418;13.668;2022-12-29T09:07:25;2.57;;;1.27;;
12171;SDS011;6149;52.418;13.668;2022-12-29T09:09:52;3.93;;;1.23;;
12171;SDS011;6149;52.418;13.668;2022-12-29T09:12:18;1.90;;;1.30;;
12171;SDS011;6149;52.418;13.668;2022-12-29T09:14:51;2.00;;;1.33;;
12171;SDS011;6149;52.418;13.668;2022-12-29T09:17:18;1.40;;;1.27;;
12171;SDS011;6149;52.418;13.668;2022-12-29T09:20:10;1.80;;;1.23;;
12171;SDS011;6149;52.418;13.668;2022-12-29T09:22:38;1.53;;;1.20;;
12171;SDS011;6149;52.418;13.668;2022-12-29T09:25:04;1.97;;;1.40;;
12171;SDS011;6149;52.418;13.668;2022-12-29T09:27:34;2.97;;;1.30;;
12171;SDS011;6149;52.418;13.668;2022-12-29T09:30:05;2.67;;;1.40;;
12171;SDS011;6149;52.418;13.668;2022-12-29T09:32:36;1.43;;;1.20;;
12171;SDS011;6149;52.418;13.668;2022-12-29T09:35:05;2.23;;;1.10;;
12171;SDS011;6149;52.418;13.668;2022-12-29T09:37:32;1.97;;;1.20;;
12171;SDS011;6149;52.418;13.668;2022-12-29T09:39:58;1.73;;;1.50;;
12171;SDS011;6149;52.418;13.668;2022-12-29T09:42:27;3.40;;;1.70;;
12171;SDS011;6149;52.418;13.668;2022-12-29T09:45:08;1.60;;;1.17;;
12171;SDS011;6149;52.418;13.668;2022-12-29T09:47:40;2.63;;;1.50;;
12171;SDS011;6149;52.418;13.668;2022-12-29T09:50:14;2.70;;;1.10;;
12171;SDS011;6149;52.418;13.668;2022-12-29T09:52:54;1.80;;;1.20;;
12171;SDS011;6149;52.418;13.668;2022-12-29T09:55:32;1.10;;;0.90;;
12171;SDS011;6149;52.418;13.668;2022-12-29T09:58:05;2.00;;;1.17;;
12171;SDS011;6149;52.418;13.668;2022-12-29T10:00:47;2.07;;;1.10;;
12171;SDS011;6149;52.418;13.668;2022-12-29T10:03:22;2.17;;;0.90;;
12171;SDS011;6149;52.418;13.668;2022-12-29T10:05:59;2.27;;;1.20;;
12171;SDS011;6149;52.418;13.668;2022-12-29T10:08:37;3.17;;;1.13;;
12171;SDS011;6149;52.418;13.668;2022-12-29T10:11:12;4.70;;;1.10;;
12171;SDS011;6149;52.418;13.668;2022-12-29T10:13:55;1.27;;;1.03;;
12171;SDS011;6149;52.418;13.668;2022-12-29T10:16:42;1.40;;;1.20;;
12171;SDS011;6149;52.418;13.668;2022-12-29T10:19:25;2.07;;;0.87;;
12171;SDS011;6149;52.418;13.668;2022-12-29T10:22:18;3.10;;;1.07;;
12171;SDS011;6149;52.418;13.668;2022-12-29T10:25:00;2.70;;;0.90;;
12171;SDS011;6149;52.418;13.668;2022-12-29T10:27:37;1.87;;;1.20;;
12171;SDS011;6149;52.418;13.668;2022-12-29T10:30:10;2.83;;;1.23;;
12171;SDS011;6149;52.418;13.668;2022-12-29T10:32:41;2.37;;;1.13;;
12171;SDS011;6149;52.418;13.668;2022-12-29T10:35:15;2.60;;;1.20;;
12171;SDS011;6149;52.418;13.668;2022-12-29T10:37:47;3.80;;;1.23;;
12171;SDS011;6149;52.418;13.668;2022-12-29T10:40:22;1.80;;;1.00;;
12171;SDS011;6149;52.418;13.668;2022-12-29T10:42:54;3.53;;;1.20;;
12171;SDS011;6149;52.418;13.668;2022-12-29T10:45:28;2.27;;;1.03;;
12171;SDS011;6149;52.418;13.668;2022-12-29T10:48:01;2.13;;;1.10;;
12171;SDS011;6149;52.418;13.668;2022-12-29T10:50:32;1.40;;;1.10;;
12171;SDS011;6149;52.418;13.668;2022-12-29T10:53:02;2.23;;;1.10;;
12171;SDS011;6149;52.418;13.668;2022-12-29T10:55:35;2.33;;;1.17;;
12171;SDS011;6149;52.418;13.668;2022-12-29T10:58:06;1.60;;;1.20;;
12171;SDS011;6149;52.418;13.668;2022-12-29T11:00:38;2.03;;;1.20;;
12171;SDS011;6149;52.418;13.668;2022-12-29T11:03:14;3.20;;;1.23;;
12171;SDS011;6149;52.418;13.668;2022-12-29T11:06:22;1.70;;;1.30;;
12171;SDS011;6149;52.418;13.668;2022-12-29T11:08:55;3.27;;;1.00;;
12171;SDS011;6149;52.418;13.668;2022-12-29T11:11:32;2.90;;;1.47;;
12171;SDS011;6149;52.418;13.668;2022-12-29T11:14:03;1.43;;;0.90;;
12171;SDS011;6149;52.418;13.668;2022-12-29T11:16:38;1.77;;;1.10;;
12171;SDS011;6149;52.418;13.668;2022-12-29T11:19:20;1.73;;;1.30;;
12171;SDS011;6149;52.418;13.668;2022-12-29T11:21:49;3.00;;;1.20;;
12171;SDS011;6149;52.418;13.668;2022-12-29T11:24:22;1.70;;;1.00;;
12171;SDS011;6149;52.418;13.668;2022-12-29T11:27:09;1.63;;;1.00;;
12171;SDS011;6149;52.418;13.668;2022-12-29T11:29:42;1.30;;;1.10;;
12171;SDS011;6149;52.418;13.668;2022-12-29T11:32:10;2.13;;;1.10;;
12171;SDS011;6149;52.418;13.668;2022-12-29T11:34:40;1.87;;;1.00;;
12171;SDS011;6149;52.418;13.668;2022-12-29T11:37:10;1.80;;;1.20;;
12171;SDS011;6149;52.418;13.668;2022-12-29T11:39:41;3.40;;;1.07;;
12171;SDS011;6149;52.418;13.668;2022-12-29T11:42:19;0.97;;;0.80;;
12171;SDS011;6149;52.418;13.668;2022-12-29T11:44:51;1.53;;;1.03;;
12171;SDS011;6149;52.418;13.668;2022-12-29T11:47:23;1.33;;;0.90;;
12171;SDS011;6149;52.418;13.668;2022-12-29T11:50:00;2.60;;;0.97;;
12171;SDS011;6149;52.418;13.668;2022-12-29T11:52:33;2.00;;;1.23;;
12171;SDS011;6149;52.418;13.668;2022-12-29T11:55:08;3.80;;;1.50;;
12171;SDS011;6149;52.418;13.668;2022-12-29T11:57:47;1.67;;;1.50;;
12171;SDS011;6149;52.418;13.668;2022-12-29T12:00:16;2.00;;;1.30;;
12171;SDS011;6149;52.418;13.668;2022-12-29T12:02:47;2.43;;;1.57;;
12171;SDS011;6149;52.418;13.668;2022-12-29T12:05:28;2.37;;;1.20;;
12171;SDS011;6149;52.418;13.668;2022-12-29T12:08:09;3.73;;;1.30;;
12171;SDS011;6149;52.418;13.668;2022-12-29T12:10:42;1.70;;;1.23;;
12171;SDS011;6149;52.418;13.668;2022-12-29T12:13:17;2.13;;;1.60;;
12171;SDS011;6149;52.418;13.668;2022-12-29T12:15:52;4.40;;;1.50;;
12171;SDS011;6149;52.418;13.668;2022-12-29T12:18:32;2.67;;;1.40;;
12171;SDS011;6149;52.418;13.668;2022-12-29T12:21:18;3.00;;;1.60;;
12171;SDS011;6149;52.418;13.668;2022-12-29T12:24:07;1.60;;;1.27;;
12171;SDS011;6149;52.418;13.668;2022-12-29T12:26:55;1.93;;;1.67;;
12171;SDS011;6149;52.418;13.668;2022-12-29T12:29:29;3.20;;;1.90;;
12171;SDS011;6149;52.418;13.668;2022-12-29T12:32:09;2.43;;;1.90;;
12171;SDS011;6149;52.418;13.668;2022-12-29T12:34:43;2.67;;;1.60;;
12171;SDS011;6149;52.418;13.668;2022-12-29T12:40:34;2.40;;;1.13;;
12171;SDS011;6149;52.418;13.668;2022-12-29T12:43:29;2.10;;;1.27;;
12171;SDS011;6149;52.418;13.668;2022-12-29T12:46:26;1.63;;;0.90;;
12171;SDS011;6149;52.418;13.668;2022-12-29T12:49:27;2.37;;;0.77;;
12171;SDS011;6149;52.418;13.668;2022-12-29T12:52:15;1.47;;;0.60;;
12171;SDS011;6149;52.418;13.668;2022-12-29T12:55:05;1.03;;;0.60;;
12171;SDS011;6149;52.418;13.668;2022-12-29T12:57:53;2.73;;;1.10;;
12171;SDS011;6149;52.418;13.668;2022-12-29T13:00:32;1.60;;;0.57;;
12171;SDS011;6149;52.418;13.668;2022-12-29T13:03:11;0.83;;;0.50;;
12171;SDS011;6149;52.418;13.668;2022-12-29T13:05:51;1.70;;;0.70;;
12171;SDS011;6149;52.418;13.668;2022-12-29T13:08:39;2.37;;;0.50;;
12171;SDS011;6149;52.418;13.668;2022-12-29T13:11:23;1.03;;;0.70;;
12171;SDS011;6149;52.418;13.668;2022-12-29T13:14:12;2.20;;;0.80;;
12171;SDS011;6149;52.418;13.668;2022-12-29T13:16:57;1.40;;;0.90;;
12171;SDS011;6149;52.418;13.668;2022-12-29T13:19:34;1.20;;;0.87;;
12171;SDS011;6149;52.418;13.668;2022-12-29T13:22:08;2.43;;;1.10;;
12171;SDS011;6149;52.418;13.668;2022-12-29T13:24:47;1.53;;;1.10;;
12171;SDS011;6149;52.418;13.668;2022-12-29T13:27:31;2.03;;;1.07;;
12171;SDS011;6149;52.418;13.668;2022-12-29T13:30:10;1.83;;;1.00;;
12171;SDS011;6149;52.418;13.668;2022-12-29T13:32:47;1.80;;;0.87;;
12171;SDS011;6149;52.418;13.668;2022-12-29T13:35:37;2.10;;;0.70;;
12171;SDS011;6149;52.418;13.668;2022-12-29T13:38:21;1.70;;;0.90;;
12171;SDS011;6149;52.418;13.668;2022-12-29T13:40:59;1.30;;;0.80;;
12171;SDS011;6149;52.418;13.668;2022-12-29T13:43:34;0.67;;;0.60;;
12171;SDS011;6149;52.418;13.668;2022-12-29T13:46:07;1.00;;;0.90;;
12171;SDS011;6149;52.418;13.668;2022-12-29T13:48:40;1.53;;;0.90;;
12171;SDS011;6149;52.418;13.668;2022-12-29T13:51:12;1.70;;;1.00;;
12171;SDS011;6149;52.418;13.668;2022-12-29T13:53:42;1.97;;;1.27;;
12171;SDS011;6149;52.418;13.668;2022-12-29T13:56:31;2.73;;;1.17;;
12171;SDS011;6149;52.418;13.668;2022-12-29T13:59:05;3.10;;;1.13;;
12171;SDS011;6149;52.418;13.668;2022-12-29T14:01:43;1.13;;;1.03;;
12171;SDS011;6149;52.418;13.668;2022-12-29T14:04:23;1.73;;;1.40;;
12171;SDS011;6149;52.418;13.668;2022-12-29T14:07:02;1.60;;;1.30;;
12171;SDS011;6149;52.418;13.668;2022-12-29T14:09:42;3.00;;;1.47;;
12171;SDS011;6149;52.418;13.668;2022-12-29T14:12:28;1.77;;;1.50;;
12171;SDS011;6149;52.418;13.668;2022-12-29T14:15:13;1.97;;;1.23;;
12171;SDS011;6149;52.418;13.668;2022-12-29T14:18:00;1.80;;;1.33;;
12171;SDS011;6149;52.418;13.668;2022-12-29T14:20:37;1.93;;;1.50;;
12171;SDS011;6149;52.418;13.668;2022-12-29T14:23:15;2.17;;;1.50;;
12171;SDS011;6149;52.418;13.668;2022-12-29T14:26:16;1.60;;;1.50;;
12171;SDS011;6149;52.418;13.668;2022-12-29T14:29:15;1.60;;;1.50;;
12171;SDS011;6149;52.418;13.668;2022-12-29T14:32:01;2.00;;;1.50;;
12171;SDS011;6149;52.418;13.668;2022-12-29T14:34:29;3.20;;;1.70;;
12171;SDS011;6149;52.418;13.668;2022-12-29T14:37:17;2.40;;;1.80;;
12171;SDS011;6149;52.418;13.668;2022-12-29T14:40:05;2.47;;;1.60;;
12171;SDS011;6149;52.418;13.668;2022-12-29T14:42:42;2.53;;;1.90;;
12171;SDS011;6149;52.418;13.668;2022-12-29T14:45:22;2.20;;;1.90;;
12171;SDS011;6149;52.418;13.668;2022-12-29T14:48:04;2.80;;;2.07;;
12171;SDS011;6149;52.418;13.668;2022-12-29T14:50:57;2.13;;;1.90;;
12171;SDS011;6149;52.418;13.668;2022-12-29T14:53:43;3.40;;;1.53;;
12171;SDS011;6149;52.418;13.668;2022-12-29T14:56:13;2.10;;;1.80;;
12171;SDS011;6149;52.418;13.668;2022-12-29T14:58:51;2.50;;;1.93;;
12171;SDS011;6149;52.418;13.668;2022-12-29T15:01:35;2.60;;;1.83;;
12171;SDS011;6149;52.418;13.668;2022-12-29T15:04:14;2.27;;;1.97;;
12171;SDS011;6149;52.418;13.668;2022-12-29T15:06:45;3.50;;;2.03;;
12171;SDS011;6149;52.418;13.668;2022-12-29T15:09:17;2.57;;;1.80;;
12171;SDS011;6149;52.418;13.668;2022-12-29T15:11:54;2.17;;;1.50;;
12171;SDS011;6149;52.418;13.668;2022-12-29T15:14:28;2.77;;;1.73;;
12171;SDS011;6149;52.418;13.668;2022-12-29T15:17:10;3.30;;;1.80;;
12171;SDS011;6149;52.418;13.668;2022-12-29T15:19:55;3.67;;;1.83;;
12171;SDS011;6149;52.418;13.668;2022-12-29T15:22:25;2.13;;;1.50;;
12171;SDS011;6149;52.418;13.668;2022-12-29T15:24:59;3.17;;;1.20;;
12171;SDS011;6149;52.418;13.668;2022-12-29T15:27:28;2.60;;;1.57;;
12171;SDS011;6149;52.418;13.668;2022-12-29T15:30:00;3.23;;;1.50;;
12171;SDS011;6149;52.418;13.668;2022-12-29T15:32:39;2.70;;;1.60;;
12171;SDS011;6149;52.418;13.668;2022-12-29T15:37:58;3.37;;;1.43;;